Sacramento International Airport
KSMF : rendu visible

Aérodrome :











RETROUVEZ-NOUS SUR...

 
LOGIN :

S'inscrire | Disclaimer

   EN    FR    IT 

 









Légende :    VFR   VFR Marginal   IFR   IFR Intensif   IFR Très Intensif
Visi : 
Plafond : 
>= 8 km
>= 3000ft
5 à 8 km
1000 à 3000 ft
1500m à 5 km
500 à 1000 ft
800 à 1500m
200 à 500 ft
< 800m
< 200 ft
Symboles :   Orages  Brouillard  Fortes neiges  Fortes précipitations  Vent > 20 kt






- Altitude de l'aérodrome : 27 ft
- Code IATA : SMF


KSMF - Sacramento International

DERNIER METAR :
  • 042153Z 24005KT 10SM FEW250 36/10 A2968 RMK AO2 SLP049 T03560100

METARs EXPIRÉS :
  • 042053Z 32007KT 10SM SCT250 35/13 A2971 RMK AO2 SLP059 T03500128 58018
  • 041953Z VRB04KT 10SM SCT250 33/13 A2973 RMK AO2 SLP067 T03330128

TAF KSMF
Valide du 04 à 18h jusqu'au 05 à 18h UTC


041726Z 0418/0518 31007KT P6SM FEW250
FM050000 17010KT P6SM FEW250
FIR KZOA / Amérique du Nord



MET'MAP, la Météo Aéronautique d'un coup d'oeil ! - Copyright ORBIFLY Décembre 2007 - Disclaimer

ORBIFLY MET'MAP TEAM :

Programmation & Développement : Alexandra Zaïnal
Sur une idée originale de : Baudouin d'Aumeries
Assistance à la programmation : Marc-Olivier Méhu
Soutien technique & logistique : Manuel Goepfert

Contact : metmap@orbifly.com




SOURCES & CREDITS :

   NOAA       Earth
Advisory